sensor_id;sensor_type;location;lat;lon;timestamp;P1;P2;P0
72467;PMS3003;60626;43.582;1.470;2023-02-11T00:00:39;69.75;54.50;36.00
72467;PMS3003;60626;43.582;1.470;2023-02-11T00:03:07;73.75;56.50;36.75
72467;PMS3003;60626;43.582;1.470;2023-02-11T00:05:34;66.50;53.25;35.75
72467;PMS3003;60626;43.582;1.470;2023-02-11T00:08:01;62.75;50.75;35.25
72467;PMS3003;60626;43.582;1.470;2023-02-11T00:10:28;68.25;54.75;36.00
72467;PMS3003;60626;43.582;1.470;2023-02-11T00:12:55;66.00;50.25;33.50
72467;PMS3003;60626;43.582;1.470;2023-02-11T00:15:21;67.50;52.25;33.25
72467;PMS3003;60626;43.582;1.470;2023-02-11T00:17:48;65.25;51.00;33.50
72467;PMS3003;60626;43.582;1.470;2023-02-11T00:20:15;51.00;40.00;24.00
72467;PMS3003;60626;43.582;1.470;2023-02-11T00:22:41;69.00;52.25;35.50
72467;PMS3003;60626;43.582;1.470;2023-02-11T00:25:08;68.50;51.75;33.75
72467;PMS3003;60626;43.582;1.470;2023-02-11T00:27:35;66.00;52.25;33.25
72467;PMS3003;60626;43.582;1.470;2023-02-11T00:30:03;67.00;50.50;34.75
72467;PMS3003;60626;43.582;1.470;2023-02-11T00:32:30;63.25;51.00;33.25
72467;PMS3003;60626;43.582;1.470;2023-02-11T00:34:57;63.00;50.75;34.50
72467;PMS3003;60626;43.582;1.470;2023-02-11T00:37:24;65.75;52.00;33.50
72467;PMS3003;60626;43.582;1.470;2023-02-11T00:39:51;61.00;47.75;30.25
72467;PMS3003;60626;43.582;1.470;2023-02-11T00:42:17;61.25;50.25;33.50
72467;PMS3003;60626;43.582;1.470;2023-02-11T00:44:44;64.50;49.75;33.75
72467;PMS3003;60626;43.582;1.470;2023-02-11T00:47:11;61.75;50.25;34.00
72467;PMS3003;60626;43.582;1.470;2023-02-11T00:49:37;64.50;51.75;33.75
72467;PMS3003;60626;43.582;1.470;2023-02-11T00:52:05;61.25;49.00;33.00
72467;PMS3003;60626;43.582;1.470;2023-02-11T00:54:32;63.50;49.25;31.75
72467;PMS3003;60626;43.582;1.470;2023-02-11T00:56:59;66.50;50.75;32.25
72467;PMS3003;60626;43.582;1.470;2023-02-11T00:59:25;67.75;52.00;32.75
72467;PMS3003;60626;43.582;1.470;2023-02-11T01:01:52;62.25;50.25;34.00
72467;PMS3003;60626;43.582;1.470;2023-02-11T01:04:19;67.50;52.75;34.75
72467;PMS3003;60626;43.582;1.470;2023-02-11T01:06:46;69.00;54.75;36.00
72467;PMS3003;60626;43.582;1.470;2023-02-11T01:09:13;69.50;53.25;35.50
72467;PMS3003;60626;43.582;1.470;2023-02-11T01:11:40;69.25;52.25;34.75
72467;PMS3003;60626;43.582;1.470;2023-02-11T01:14:06;64.00;51.25;32.25
72467;PMS3003;60626;43.582;1.470;2023-02-11T01:16:33;63.75;51.75;34.00
72467;PMS3003;60626;43.582;1.470;2023-02-11T01:19:00;67.00;53.00;34.50
72467;PMS3003;60626;43.582;1.470;2023-02-11T01:21:27;62.25;48.75;32.00
72467;PMS3003;60626;43.582;1.470;2023-02-11T01:23:53;65.50;52.25;33.75
72467;PMS3003;60626;43.582;1.470;2023-02-11T01:26:20;65.25;52.50;34.75
72467;PMS3003;60626;43.582;1.470;2023-02-11T01:28:46;66.50;52.75;34.00
72467;PMS3003;60626;43.582;1.470;2023-02-11T01:31:13;66.50;51.75;34.25
72467;PMS3003;60626;43.582;1.470;2023-02-11T01:33:40;62.25;51.00;33.25
72467;PMS3003;60626;43.582;1.470;2023-02-11T01:36:07;68.75;51.75;33.00
72467;PMS3003;60626;43.582;1.470;2023-02-11T01:38:34;57.75;46.00;31.50
72467;PMS3003;60626;43.582;1.470;2023-02-11T01:41:03;66.75;51.75;34.25
72467;PMS3003;60626;43.582;1.470;2023-02-11T01:43:39;63.50;49.25;31.00
72467;PMS3003;60626;43.582;1.470;2023-02-11T01:49:00;65.25;50.00;32.25
72467;PMS3003;60626;43.582;1.470;2023-02-11T01:51:47;69.25;51.75;32.75
72467;PMS3003;60626;43.582;1.470;2023-02-11T01:54:32;57.75;46.25;31.00
72467;PMS3003;60626;43.582;1.470;2023-02-11T01:57:20;62.00;49.00;31.50
72467;PMS3003;60626;43.582;1.470;2023-02-11T01:59:53;1.00;0.00;0.00
72467;PMS3003;60626;43.582;1.470;2023-02-11T02:05:44;56.25;46.75;31.00
72467;PMS3003;60626;43.582;1.470;2023-02-11T02:08:22;58.00;45.75;30.00
72467;PMS3003;60626;43.582;1.470;2023-02-11T02:11:08;60.25;47.00;31.00
72467;PMS3003;60626;43.582;1.470;2023-02-11T02:13:35;59.00;48.50;31.25
72467;PMS3003;60626;43.582;1.470;2023-02-11T02:16:06;59.75;48.25;31.00
72467;PMS3003;60626;43.582;1.470;2023-02-11T02:34:47;59.25;47.00;31.00
72467;PMS3003;60626;43.582;1.470;2023-02-11T02:37:46;61.75;45.00;30.75
72467;PMS3003;60626;43.582;1.470;2023-02-11T02:40:15;55.75;46.50;30.00
72467;PMS3003;60626;43.582;1.470;2023-02-11T02:42:49;63.25;48.00;32.00
72467;PMS3003;60626;43.582;1.470;2023-02-11T02:45:16;55.75;44.25;29.50
72467;PMS3003;60626;43.582;1.470;2023-02-11T02:47:44;55.25;45.00;30.00
72467;PMS3003;60626;43.582;1.470;2023-02-11T02:50:11;57.75;46.50;30.25
72467;PMS3003;60626;43.582;1.470;2023-02-11T02:55:43;54.25;46.00;30.00
72467;PMS3003;60626;43.582;1.470;2023-02-11T03:07:11;60.50;46.25;29.75
72467;PMS3003;60626;43.582;1.470;2023-02-11T03:09:57;53.25;45.00;29.25
72467;PMS3003;60626;43.582;1.470;2023-02-11T03:12:29;55.75;46.00;30.00
72467;PMS3003;60626;43.582;1.470;2023-02-11T03:14:57;60.75;47.25;31.00
72467;PMS3003;60626;43.582;1.470;2023-02-11T03:17:26;55.25;45.50;31.00
72467;PMS3003;60626;43.582;1.470;2023-02-11T03:19:54;62.25;47.50;31.25
72467;PMS3003;60626;43.582;1.470;2023-02-11T03:22:24;59.00;47.25;29.75
72467;PMS3003;60626;43.582;1.470;2023-02-11T03:24:55;60.75;49.25;32.00
72467;PMS3003;60626;43.582;1.470;2023-02-11T03:27:25;63.25;47.75;32.00
72467;PMS3003;60626;43.582;1.470;2023-02-11T03:32:32;60.75;46.00;31.00
72467;PMS3003;60626;43.582;1.470;2023-02-11T03:35:46;59.00;47.00;30.75
72467;PMS3003;60626;43.582;1.470;2023-02-11T03:38:03;61.25;47.25;31.00
72467;PMS3003;60626;43.582;1.470;2023-02-11T03:40:35;61.50;47.25;31.25
72467;PMS3003;60626;43.582;1.470;2023-02-11T03:43:09;60.75;48.50;31.00
72467;PMS3003;60626;43.582;1.470;2023-02-11T03:45:42;63.50;49.00;31.00
72467;PMS3003;60626;43.582;1.470;2023-02-11T03:48:13;54.75;45.50;31.25
72467;PMS3003;60626;43.582;1.470;2023-02-11T03:50:47;58.75;48.50;31.25
72467;PMS3003;60626;43.582;1.470;2023-02-11T03:53:16;67.75;49.00;31.25
72467;PMS3003;60626;43.582;1.470;2023-02-11T03:55:44;61.75;48.25;30.75
72467;PMS3003;60626;43.582;1.470;2023-02-11T03:58:13;55.50;43.50;30.00
72467;PMS3003;60626;43.582;1.470;2023-02-11T04:00:41;58.25;45.50;31.50
72467;PMS3003;60626;43.582;1.470;2023-02-11T04:03:09;53.75;45.00;28.75
72467;PMS3003;60626;43.582;1.470;2023-02-11T04:05:37;51.75;44.50;29.50
72467;PMS3003;60626;43.582;1.470;2023-02-11T04:08:04;55.25;44.25;30.75
72467;PMS3003;60626;43.582;1.470;2023-02-11T04:10:31;46.75;39.00;23.25
72467;PMS3003;60626;43.582;1.470;2023-02-11T04:12:58;58.75;47.75;30.25
72467;PMS3003;60626;43.582;1.470;2023-02-11T04:15:24;62.75;49.50;31.00
72467;PMS3003;60626;43.582;1.470;2023-02-11T04:17:51;62.00;46.25;30.25
72467;PMS3003;60626;43.582;1.470;2023-02-11T04:20:18;57.75;44.25;28.50
72467;PMS3003;60626;43.582;1.470;2023-02-11T04:22:45;56.25;45.75;30.25
72467;PMS3003;60626;43.582;1.470;2023-02-11T04:25:11;51.25;43.50;30.50
72467;PMS3003;60626;43.582;1.470;2023-02-11T04:27:38;56.50;46.25;30.75
72467;PMS3003;60626;43.582;1.470;2023-02-11T04:30:05;53.25;45.50;29.75
72467;PMS3003;60626;43.582;1.470;2023-02-11T04:32:33;54.00;44.75;30.75
72467;PMS3003;60626;43.582;1.470;2023-02-11T04:35:00;54.50;44.50;28.50
72467;PMS3003;60626;43.582;1.470;2023-02-11T04:37:28;59.25;44.50;30.25
72467;PMS3003;60626;43.582;1.470;2023-02-11T04:39:55;56.25;42.00;28.50
72467;PMS3003;60626;43.582;1.470;2023-02-11T04:42:21;53.25;40.50;24.25
72467;PMS3003;60626;43.582;1.470;2023-02-11T04:44:48;56.00;46.50;30.50
72467;PMS3003;60626;43.582;1.470;2023-02-11T04:47:15;56.25;45.25;30.00
72467;PMS3003;60626;43.582;1.470;2023-02-11T04:49:41;58.75;45.50;31.25
72467;PMS3003;60626;43.582;1.470;2023-02-11T04:52:08;57.25;44.50;28.75
72467;PMS3003;60626;43.582;1.470;2023-02-11T04:54:35;57.00;45.00;29.50
72467;PMS3003;60626;43.582;1.470;2023-02-11T04:57:01;54.00;45.25;29.50
72467;PMS3003;60626;43.582;1.470;2023-02-11T04:59:28;52.00;41.25;28.50
72467;PMS3003;60626;43.582;1.470;2023-02-11T05:01:55;54.00;43.50;28.50
72467;PMS3003;60626;43.582;1.470;2023-02-11T05:04:22;56.50;42.25;28.75
72467;PMS3003;60626;43.582;1.470;2023-02-11T05:06:48;51.25;42.00;27.00
72467;PMS3003;60626;43.582;1.470;2023-02-11T05:09:15;51.00;39.75;26.75
72467;PMS3003;60626;43.582;1.470;2023-02-11T05:11:42;57.00;45.00;26.50
72467;PMS3003;60626;43.582;1.470;2023-02-11T05:14:09;50.75;42.50;28.25
72467;PMS3003;60626;43.582;1.470;2023-02-11T05:16:36;52.25;40.50;27.00
72467;PMS3003;60626;43.582;1.470;2023-02-11T05:19:03;51.75;43.00;27.25
72467;PMS3003;60626;43.582;1.470;2023-02-11T05:21:29;54.75;42.75;27.25
72467;PMS3003;60626;43.582;1.470;2023-02-11T05:23:56;44.75;39.25;26.00
72467;PMS3003;60626;43.582;1.470;2023-02-11T05:26:23;50.25;39.75;25.75
72467;PMS3003;60626;43.582;1.470;2023-02-11T05:28:49;59.00;40.75;26.00
72467;PMS3003;60626;43.582;1.470;2023-02-11T05:31:16;45.50;38.50;25.50
72467;PMS3003;60626;43.582;1.470;2023-02-11T05:33:43;45.25;38.50;26.00
72467;PMS3003;60626;43.582;1.470;2023-02-11T05:36:11;43.25;37.00;26.75
72467;PMS3003;60626;43.582;1.470;2023-02-11T05:38:38;50.25;40.00;25.50
72467;PMS3003;60626;43.582;1.470;2023-02-11T05:41:05;54.25;43.00;27.25
72467;PMS3003;60626;43.582;1.470;2023-02-11T05:43:32;44.75;40.00;26.25
72467;PMS3003;60626;43.582;1.470;2023-02-11T05:46:03;44.00;37.75;24.00
72467;PMS3003;60626;43.582;1.470;2023-02-11T05:48:30;53.50;43.00;26.75
72467;PMS3003;60626;43.582;1.470;2023-02-11T05:50:57;49.75;40.75;26.25
72467;PMS3003;60626;43.582;1.470;2023-02-11T05:53:24;47.00;41.00;26.00
72467;PMS3003;60626;43.582;1.470;2023-02-11T05:55:50;44.50;38.50;26.00
72467;PMS3003;60626;43.582;1.470;2023-02-11T05:58:18;53.75;40.75;25.75
72467;PMS3003;60626;43.582;1.470;2023-02-11T06:00:44;51.00;40.50;27.25
72467;PMS3003;60626;43.582;1.470;2023-02-11T06:03:11;55.00;43.75;29.00
72467;PMS3003;60626;43.582;1.470;2023-02-11T06:05:38;45.75;37.00;25.00
72467;PMS3003;60626;43.582;1.470;2023-02-11T06:08:04;57.50;45.75;30.00
72467;PMS3003;60626;43.582;1.470;2023-02-11T06:10:31;47.50;39.25;26.00
72467;PMS3003;60626;43.582;1.470;2023-02-11T06:12:58;49.00;40.50;26.00
72467;PMS3003;60626;43.582;1.470;2023-02-11T06:15:24;54.25;40.75;26.25
72467;PMS3003;60626;43.582;1.470;2023-02-11T06:17:51;51.50;41.00;26.25
72467;PMS3003;60626;43.582;1.470;2023-02-11T06:20:18;46.00;38.50;26.25
72467;PMS3003;60626;43.582;1.470;2023-02-11T06:22:45;52.25;42.75;27.25
72467;PMS3003;60626;43.582;1.470;2023-02-11T06:25:12;53.25;41.50;27.75
72467;PMS3003;60626;43.582;1.470;2023-02-11T06:27:40;57.50;43.25;27.25
72467;PMS3003;60626;43.582;1.470;2023-02-11T06:30:06;53.50;41.00;28.25
72467;PMS3003;60626;43.582;1.470;2023-02-11T06:32:34;52.00;42.25;28.50
72467;PMS3003;60626;43.582;1.470;2023-02-11T06:35:09;52.50;43.00;28.00
72467;PMS3003;60626;43.582;1.470;2023-02-11T06:37:38;54.25;42.50;29.00
72467;PMS3003;60626;43.582;1.470;2023-02-11T06:40:05;49.25;41.25;29.50
72467;PMS3003;60626;43.582;1.470;2023-02-11T06:42:31;53.00;41.00;26.50
72467;PMS3003;60626;43.582;1.470;2023-02-11T06:44:58;45.25;37.25;25.00
72467;PMS3003;60626;43.582;1.470;2023-02-11T06:47:25;52.75;41.25;27.00
72467;PMS3003;60626;43.582;1.470;2023-02-11T06:49:51;32.75;29.50;26.00
72467;PMS3003;60626;43.582;1.470;2023-02-11T06:52:18;56.00;42.75;28.75
72467;PMS3003;60626;43.582;1.470;2023-02-11T06:54:45;52.00;40.50;28.50
72467;PMS3003;60626;43.582;1.470;2023-02-11T06:57:11;58.50;45.50;30.25
72467;PMS3003;60626;43.582;1.470;2023-02-11T06:59:38;63.50;47.50;31.75
72467;PMS3003;60626;43.582;1.470;2023-02-11T07:02:04;54.00;43.00;30.00
72467;PMS3003;60626;43.582;1.470;2023-02-11T07:04:31;50.25;43.50;29.75
72467;PMS3003;60626;43.582;1.470;2023-02-11T07:06:58;55.25;44.75;30.00
72467;PMS3003;60626;43.582;1.470;2023-02-11T07:09:24;55.50;45.00;31.00
72467;PMS3003;60626;43.582;1.470;2023-02-11T07:11:51;58.00;46.50;30.00
72467;PMS3003;60626;43.582;1.470;2023-02-11T07:14:17;62.00;50.00;32.00
72467;PMS3003;60626;43.582;1.470;2023-02-11T07:16:44;65.00;52.75;33.00
72467;PMS3003;60626;43.582;1.470;2023-02-11T07:19:11;63.50;49.75;32.75
72467;PMS3003;60626;43.582;1.470;2023-02-11T07:21:37;66.75;51.00;33.50
72467;PMS3003;60626;43.582;1.470;2023-02-11T07:24:08;66.25;53.00;34.75
72467;PMS3003;60626;43.582;1.470;2023-02-11T07:26:36;69.75;54.00;35.25
72467;PMS3003;60626;43.582;1.470;2023-02-11T07:29:03;75.75;56.75;38.00
72467;PMS3003;60626;43.582;1.470;2023-02-11T07:31:30;65.25;51.00;33.25
72467;PMS3003;60626;43.582;1.470;2023-02-11T07:33:58;62.25;50.00;32.00
72467;PMS3003;60626;43.582;1.470;2023-02-11T07:36:27;69.75;51.50;32.75
72467;PMS3003;60626;43.582;1.470;2023-02-11T07:38:54;59.25;48.25;32.00
72467;PMS3003;60626;43.582;1.470;2023-02-11T07:41:21;64.00;50.50;32.00
72467;PMS3003;60626;43.582;1.470;2023-02-11T07:43:49;63.75;51.00;32.50
72467;PMS3003;60626;43.582;1.470;2023-02-11T07:46:20;63.50;51.25;34.25
72467;PMS3003;60626;43.582;1.470;2023-02-11T07:48:48;58.50;49.25;32.00
72467;PMS3003;60626;43.582;1.470;2023-02-11T07:51:17;64.25;50.50;33.00
72467;PMS3003;60626;43.582;1.470;2023-02-11T07:53:48;64.75;48.00;32.00
72467;PMS3003;60626;43.582;1.470;2023-02-11T07:56:16;62.25;47.00;32.00
72467;PMS3003;60626;43.582;1.470;2023-02-11T07:58:43;59.00;47.25;31.75
72467;PMS3003;60626;43.582;1.470;2023-02-11T08:01:11;60.75;48.75;32.00
72467;PMS3003;60626;43.582;1.470;2023-02-11T08:03:41;52.75;45.00;29.50
72467;PMS3003;60626;43.582;1.470;2023-02-11T08:06:09;55.75;45.00;30.75
72467;PMS3003;60626;43.582;1.470;2023-02-11T08:08:40;55.25;45.50;31.00
72467;PMS3003;60626;43.582;1.470;2023-02-11T08:11:08;60.00;46.50;31.00
72467;PMS3003;60626;43.582;1.470;2023-02-11T08:13:46;64.50;49.25;33.50
72467;PMS3003;60626;43.582;1.470;2023-02-11T08:16:32;65.75;50.25;33.50
72467;PMS3003;60626;43.582;1.470;2023-02-11T08:19:02;73.50;56.00;36.25
72467;PMS3003;60626;43.582;1.470;2023-02-11T08:21:31;65.25;51.75;34.00
72467;PMS3003;60626;43.582;1.470;2023-02-11T08:23:58;59.75;46.75;30.25
72467;PMS3003;60626;43.582;1.470;2023-02-11T08:26:29;58.75;45.75;31.25
72467;PMS3003;60626;43.582;1.470;2023-02-11T08:28:57;56.00;46.50;32.25
72467;PMS3003;60626;43.582;1.470;2023-02-11T08:31:25;65.00;51.00;35.00
72467;PMS3003;60626;43.582;1.470;2023-02-11T08:33:55;61.00;50.50;34.25
72467;PMS3003;60626;43.582;1.470;2023-02-11T08:36:24;62.25;48.75;31.75
72467;PMS3003;60626;43.582;1.470;2023-02-11T08:38:55;58.25;45.25;31.00
72467;PMS3003;60626;43.582;1.470;2023-02-11T08:41:41;60.00;46.25;32.25
72467;PMS3003;60626;43.582;1.470;2023-02-11T08:44:08;65.25;49.25;32.75
72467;PMS3003;60626;43.582;1.470;2023-02-11T08:46:35;63.00;50.00;33.00
72467;PMS3003;60626;43.582;1.470;2023-02-11T08:49:02;63.75;50.50;32.50
72467;PMS3003;60626;43.582;1.470;2023-02-11T08:51:28;63.50;50.25;33.25
72467;PMS3003;60626;43.582;1.470;2023-02-11T08:53:56;58.00;48.75;32.00
72467;PMS3003;60626;43.582;1.470;2023-02-11T08:56:23;63.50;50.75;33.00
72467;PMS3003;60626;43.582;1.470;2023-02-11T08:58:50;66.75;51.50;33.50
72467;PMS3003;60626;43.582;1.470;2023-02-11T09:01:22;61.75;51.50;35.25
72467;PMS3003;60626;43.582;1.470;2023-02-11T09:03:51;60.00;49.25;33.25
72467;PMS3003;60626;43.582;1.470;2023-02-11T09:06:18;60.25;47.25;32.25
72467;PMS3003;60626;43.582;1.470;2023-02-11T09:08:48;60.50;49.50;32.25
72467;PMS3003;60626;43.582;1.470;2023-02-11T09:11:17;61.25;48.00;31.00
72467;PMS3003;60626;43.582;1.470;2023-02-11T09:13:46;58.25;45.25;30.25
72467;PMS3003;60626;43.582;1.470;2023-02-11T09:16:20;52.75;42.25;29.00
72467;PMS3003;60626;43.582;1.470;2023-02-11T09:18:49;49.25;41.50;28.00
72467;PMS3003;60626;43.582;1.470;2023-02-11T09:21:16;38.50;35.00;24.00
72467;PMS3003;60626;43.582;1.470;2023-02-11T09:23:44;40.50;34.25;24.00
72467;PMS3003;60626;43.582;1.470;2023-02-11T09:26:15;42.25;37.25;25.00
72467;PMS3003;60626;43.582;1.470;2023-02-11T09:28:45;34.50;31.00;21.00
72467;PMS3003;60626;43.582;1.470;2023-02-11T09:31:13;36.50;32.75;23.50
72467;PMS3003;60626;43.582;1.470;2023-02-11T09:33:44;41.25;36.00;25.50
72467;PMS3003;60626;43.582;1.470;2023-02-11T09:36:17;46.75;40.00;26.50
72467;PMS3003;60626;43.582;1.470;2023-02-11T09:38:45;48.00;39.50;27.00
72467;PMS3003;60626;43.582;1.470;2023-02-11T09:42:03;41.75;35.00;24.50
72467;PMS3003;60626;43.582;1.470;2023-02-11T09:44:18;49.75;40.00;25.75
72467;PMS3003;60626;43.582;1.470;2023-02-11T09:46:54;48.00;38.75;25.25
72467;PMS3003;60626;43.582;1.470;2023-02-11T09:49:27;48.75;38.50;27.00
72467;PMS3003;60626;43.582;1.470;2023-02-11T09:52:04;49.75;39.00;28.00
72467;PMS3003;60626;43.582;1.470;2023-02-11T09:54:46;45.50;38.50;25.00
72467;PMS3003;60626;43.582;1.470;2023-02-11T09:57:21;47.50;39.50;27.25
72467;PMS3003;60626;43.582;1.470;2023-02-11T09:59:54;44.75;35.75;22.50
72467;PMS3003;60626;43.582;1.470;2023-02-11T10:10:40;46.75;36.75;25.75
72467;PMS3003;60626;43.582;1.470;2023-02-11T10:16:07;40.75;34.00;24.25
72467;PMS3003;60626;43.582;1.470;2023-02-11T10:24:55;49.25;39.00;26.25
72467;PMS3003;60626;43.582;1.470;2023-02-11T10:27:32;48.25;38.50;25.75
72467;PMS3003;60626;43.582;1.470;2023-02-11T10:30:03;49.75;41.75;28.00
72467;PMS3003;60626;43.582;1.470;2023-02-11T10:32:40;48.25;38.50;28.00
72467;PMS3003;60626;43.582;1.470;2023-02-11T10:35:16;44.00;37.50;27.25
72467;PMS3003;60626;43.582;1.470;2023-02-11T10:37:46;46.25;38.50;25.25
72467;PMS3003;60626;43.582;1.470;2023-02-11T10:40:14;45.50;36.00;25.00
72467;PMS3003;60626;43.582;1.470;2023-02-11T10:42:44;46.50;39.25;27.25
72467;PMS3003;60626;43.582;1.470;2023-02-11T10:45:15;45.00;37.75;26.00
72467;PMS3003;60626;43.582;1.470;2023-02-11T10:47:47;44.25;38.25;27.00
72467;PMS3003;60626;43.582;1.470;2023-02-11T10:50:27;46.25;37.50;27.00
72467;PMS3003;60626;43.582;1.470;2023-02-11T10:53:10;45.50;37.00;24.50
72467;PMS3003;60626;43.582;1.470;2023-02-11T10:55:38;36.25;33.25;23.50
72467;PMS3003;60626;43.582;1.470;2023-02-11T10:58:25;38.25;34.25;22.25
72467;PMS3003;60626;43.582;1.470;2023-02-11T11:01:02;44.50;34.50;23.00
72467;PMS3003;60626;43.582;1.470;2023-02-11T11:03:39;43.50;35.50;24.25
72467;PMS3003;60626;43.582;1.470;2023-02-11T11:06:12;41.50;34.25;23.50
72467;PMS3003;60626;43.582;1.470;2023-02-11T11:11:12;38.75;34.00;23.75
72467;PMS3003;60626;43.582;1.470;2023-02-11T11:14:07;40.75;34.75;23.50
72467;PMS3003;60626;43.582;1.470;2023-02-11T11:16:29;41.00;32.75;23.25
72467;PMS3003;60626;43.582;1.470;2023-02-11T11:24:02;40.00;35.00;23.00
72467;PMS3003;60626;43.582;1.470;2023-02-11T11:29:50;43.25;33.00;21.75
72467;PMS3003;60626;43.582;1.470;2023-02-11T11:32:09;34.50;30.25;21.50
72467;PMS3003;60626;43.582;1.470;2023-02-11T11:34:41;38.50;32.25;22.25
72467;PMS3003;60626;43.582;1.470;2023-02-11T11:37:29;35.50;31.25;22.25
72467;PMS3003;60626;43.582;1.470;2023-02-11T11:45:56;36.00;32.25;22.25
72467;PMS3003;60626;43.582;1.470;2023-02-11T11:48:30;41.25;36.00;25.00
72467;PMS3003;60626;43.582;1.470;2023-02-11T11:51:07;36.75;33.75;21.75
72467;PMS3003;60626;43.582;1.470;2023-02-11T11:53:41;40.25;34.75;23.00
72467;PMS3003;60626;43.582;1.470;2023-02-11T11:56:17;37.75;33.00;23.00
72467;PMS3003;60626;43.582;1.470;2023-02-11T11:58:47;3.50;2.75;0.00
72467;PMS3003;60626;43.582;1.470;2023-02-11T12:09:36;34.75;31.00;23.00
72467;PMS3003;60626;43.582;1.470;2023-02-11T12:23:41;35.50;29.75;20.00
72467;PMS3003;60626;43.582;1.470;2023-02-11T12:38:15;38.25;28.25;20.25
72467;PMS3003;60626;43.582;1.470;2023-02-11T12:51:31;27.50;27.50;20.00
72467;PMS3003;60626;43.582;1.470;2023-02-11T12:54:37;30.75;26.75;19.00
72467;PMS3003;60626;43.582;1.470;2023-02-11T12:57:14;25.25;23.50;17.00
72467;PMS3003;60626;43.582;1.470;2023-02-11T13:05:26;25.50;22.00;16.50
72467;PMS3003;60626;43.582;1.470;2023-02-11T13:08:03;27.25;26.25;19.00
72467;PMS3003;60626;43.582;1.470;2023-02-11T13:10:42;28.00;28.00;19.50
72467;PMS3003;60626;43.582;1.470;2023-02-11T13:13:18;31.00;29.25;20.00
72467;PMS3003;60626;43.582;1.470;2023-02-11T13:16:01;34.00;30.25;19.75
72467;PMS3003;60626;43.582;1.470;2023-02-11T13:18:50;26.50;26.50;18.75
72467;PMS3003;60626;43.582;1.470;2023-02-11T13:21:32;31.00;28.50;20.00
72467;PMS3003;60626;43.582;1.470;2023-02-11T13:35:37;27.25;25.75;19.00
72467;PMS3003;60626;43.582;1.470;2023-02-11T13:38:19;35.75;30.75;20.00
72467;PMS3003;60626;43.582;1.470;2023-02-11T13:43:27;34.25;28.25;19.75
72467;PMS3003;60626;43.582;1.470;2023-02-11T13:45:59;30.25;27.75;20.00
72467;PMS3003;60626;43.582;1.470;2023-02-11T13:48:29;30.50;26.00;19.50
72467;PMS3003;60626;43.582;1.470;2023-02-11T13:51:01;28.50;28.50;19.25
72467;PMS3003;60626;43.582;1.470;2023-02-11T13:53:48;31.25;27.25;19.25
72467;PMS3003;60626;43.582;1.470;2023-02-11T13:58:59;28.00;27.75;19.00
72467;PMS3003;60626;43.582;1.470;2023-02-11T14:05:28;28.00;25.75;17.25
72467;PMS3003;60626;43.582;1.470;2023-02-11T14:13:34;27.00;27.00;19.50
72467;PMS3003;60626;43.582;1.470;2023-02-11T14:29:10;30.25;29.25;20.75
72467;PMS3003;60626;43.582;1.470;2023-02-11T14:32:12;35.50;28.75;19.00
72467;PMS3003;60626;43.582;1.470;2023-02-11T14:43:14;23.00;22.50;17.25
72467;PMS3003;60626;43.582;1.470;2023-02-11T14:45:47;29.25;29.00;20.00
72467;PMS3003;60626;43.582;1.470;2023-02-11T14:48:17;29.50;25.75;18.25
72467;PMS3003;60626;43.582;1.470;2023-02-11T14:50:49;31.75;27.75;16.75
72467;PMS3003;60626;43.582;1.470;2023-02-11T14:53:23;22.00;22.00;17.75
72467;PMS3003;60626;43.582;1.470;2023-02-11T14:55:52;25.75;25.00;17.00
72467;PMS3003;60626;43.582;1.470;2023-02-11T15:01:00;24.75;22.00;15.75
72467;PMS3003;60626;43.582;1.470;2023-02-11T15:03:35;26.00;22.25;15.25
72467;PMS3003;60626;43.582;1.470;2023-02-11T15:06:17;21.25;21.25;14.75
72467;PMS3003;60626;43.582;1.470;2023-02-11T15:08:52;22.75;22.75;15.50
72467;PMS3003;60626;43.582;1.470;2023-02-11T15:11:23;22.00;21.50;15.75
72467;PMS3003;60626;43.582;1.470;2023-02-11T15:13:51;30.50;26.00;18.00
72467;PMS3003;60626;43.582;1.470;2023-02-11T15:16:24;23.75;21.50;16.00
72467;PMS3003;60626;43.582;1.470;2023-02-11T15:18:54;21.75;21.75;17.00
72467;PMS3003;60626;43.582;1.470;2023-02-11T15:21:27;25.00;23.50;15.75
72467;PMS3003;60626;43.582;1.470;2023-02-11T15:24:00;21.00;21.00;15.75
72467;PMS3003;60626;43.582;1.470;2023-02-11T15:29:24;28.75;25.00;16.75
72467;PMS3003;60626;43.582;1.470;2023-02-11T15:34:51;26.00;22.75;15.75
72467;PMS3003;60626;43.582;1.470;2023-02-11T15:37:24;29.25;24.00;14.50
72467;PMS3003;60626;43.582;1.470;2023-02-11T15:39:52;28.00;23.25;17.00
72467;PMS3003;60626;43.582;1.470;2023-02-11T15:42:26;23.75;21.50;15.75
72467;PMS3003;60626;43.582;1.470;2023-02-11T15:47:37;20.00;19.75;14.75
72467;PMS3003;60626;43.582;1.470;2023-02-11T15:50:05;22.00;22.00;16.75
72467;PMS3003;60626;43.582;1.470;2023-02-11T15:52:32;26.50;25.00;18.75
72467;PMS3003;60626;43.582;1.470;2023-02-11T15:54:59;25.50;25.00;17.00
72467;PMS3003;60626;43.582;1.470;2023-02-11T15:57:28;28.00;27.25;18.50
72467;PMS3003;60626;43.582;1.470;2023-02-11T15:59:55;29.25;27.50;17.00
72467;PMS3003;60626;43.582;1.470;2023-02-11T16:02:32;20.75;18.25;14.25
72467;PMS3003;60626;43.582;1.470;2023-02-11T16:05:06;21.25;21.25;14.50
72467;PMS3003;60626;43.582;1.470;2023-02-11T16:10:20;29.50;25.75;18.00
72467;PMS3003;60626;43.582;1.470;2023-02-11T16:15:53;23.00;21.50;16.00
72467;PMS3003;60626;43.582;1.470;2023-02-11T16:18:29;26.25;25.25;19.50
72467;PMS3003;60626;43.582;1.470;2023-02-11T16:21:04;30.25;26.50;19.50
72467;PMS3003;60626;43.582;1.470;2023-02-11T16:23:37;28.25;25.25;18.25
72467;PMS3003;60626;43.582;1.470;2023-02-11T16:26:50;27.25;24.75;19.75
72467;PMS3003;60626;43.582;1.470;2023-02-11T16:29:10;27.25;27.00;19.25
72467;PMS3003;60626;43.582;1.470;2023-02-11T16:31:44;26.00;23.00;17.00
72467;PMS3003;60626;43.582;1.470;2023-02-11T16:34:13;28.75;26.75;20.00
72467;PMS3003;60626;43.582;1.470;2023-02-11T16:36:45;27.75;25.25;18.75
72467;PMS3003;60626;43.582;1.470;2023-02-11T16:39:13;20.50;20.25;14.25
72467;PMS3003;60626;43.582;1.470;2023-02-11T16:41:42;27.75;27.75;19.75
72467;PMS3003;60626;43.582;1.470;2023-02-11T16:44:09;25.00;24.00;17.75
72467;PMS3003;60626;43.582;1.470;2023-02-11T16:46:36;24.25;24.25;17.00
72467;PMS3003;60626;43.582;1.470;2023-02-11T16:49:06;29.25;25.25;17.50
72467;PMS3003;60626;43.582;1.470;2023-02-11T16:51:42;29.75;26.25;19.00
72467;PMS3003;60626;43.582;1.470;2023-02-11T16:54:13;29.00;24.00;18.00
72467;PMS3003;60626;43.582;1.470;2023-02-11T16:56:42;33.25;25.50;19.00
72467;PMS3003;60626;43.582;1.470;2023-02-11T16:59:08;30.00;28.50;20.00
72467;PMS3003;60626;43.582;1.470;2023-02-11T17:01:36;25.25;23.00;15.25
72467;PMS3003;60626;43.582;1.470;2023-02-11T17:04:04;26.00;25.75;19.25
72467;PMS3003;60626;43.582;1.470;2023-02-11T17:06:33;26.75;25.50;15.50
72467;PMS3003;60626;43.582;1.470;2023-02-11T17:09:00;30.25;27.00;19.25